createdAt,value
2019-03-26T00:01:04.171Z,75.70
2019-03-26T00:03:39.229Z,76.10
2019-03-26T00:06:12.536Z,76.00
2019-03-26T00:08:41.805Z,76.00
2019-03-26T00:11:14.096Z,76.20
2019-03-26T00:13:49.718Z,76.50
2019-03-26T00:16:15.774Z,76.80
2019-03-26T00:18:44.252Z,76.90
2019-03-26T00:21:12.936Z,76.90
2019-03-26T00:23:41.498Z,76.90
2019-03-26T00:26:11.266Z,76.90
2019-03-26T00:28:39.897Z,77.10
2019-03-26T00:31:08.371Z,77.30
2019-03-26T00:33:36.997Z,77.40
2019-03-26T00:36:06.430Z,77.40
2019-03-26T00:38:34.930Z,77.60
2019-03-26T00:41:03.645Z,77.60
2019-03-26T00:43:32.110Z,77.60
2019-03-26T00:46:00.623Z,77.70
2019-03-26T00:48:29.728Z,77.80
2019-03-26T00:50:58.281Z,77.50
2019-03-26T00:53:26.741Z,77.50
2019-03-26T00:55:55.307Z,77.50
2019-03-26T00:58:24.128Z,77.40
2019-03-26T01:00:52.846Z,77.30
2019-03-26T01:03:21.492Z,76.90
2019-03-26T01:05:50.121Z,76.40
2019-03-26T01:08:18.585Z,77.00
2019-03-26T01:10:47.347Z,76.00
2019-03-26T01:13:16.206Z,75.80
2019-03-26T01:15:44.736Z,75.80
2019-03-26T01:18:13.580Z,75.80
2019-03-26T01:20:42.203Z,75.60
2019-03-26T01:23:30.113Z,75.40
2019-03-26T01:25:58.582Z,75.40
2019-03-26T01:28:27.117Z,75.10
2019-03-26T01:30:55.722Z,75.00
2019-03-26T01:33:24.181Z,74.90
2019-03-26T01:35:52.751Z,74.80
2019-03-26T01:38:21.380Z,74.40
2019-03-26T01:40:51.500Z,74.20
2019-03-26T01:43:20.296Z,74.20
2019-03-26T01:45:48.832Z,74.10
2019-03-26T01:48:17.557Z,73.90
2019-03-26T01:50:46.015Z,73.90
2019-03-26T01:53:14.482Z,73.70
2019-03-26T01:55:43.332Z,73.30
2019-03-26T01:58:11.844Z,73.30
2019-03-26T02:00:40.375Z,73.20
2019-03-26T02:03:08.924Z,72.70
2019-03-26T02:05:37.379Z,72.60
2019-03-26T02:08:06.001Z,72.60
2019-03-26T02:10:34.480Z,72.70
2019-03-26T02:13:03.276Z,72.50
2019-03-26T02:15:33.404Z,72.50
2019-03-26T02:18:02.613Z,72.30
2019-03-26T02:20:31.226Z,72.20
2019-03-26T02:23:00.068Z,72.30
2019-03-26T02:25:29.129Z,72.10
2019-03-26T02:27:57.769Z,71.80
2019-03-26T02:30:26.563Z,71.70
2019-03-26T02:32:55.027Z,71.70
2019-03-26T02:35:23.494Z,71.80
2019-03-26T02:37:51.992Z,71.80
2019-03-26T02:40:20.634Z,72.00
2019-03-26T02:42:49.107Z,72.10
2019-03-26T02:45:17.643Z,72.20
2019-03-26T02:47:46.561Z,72.20
2019-03-26T02:50:15.296Z,72.20
2019-03-26T02:52:43.775Z,72.30
2019-03-26T02:55:12.401Z,72.60
2019-03-26T02:57:40.982Z,72.70
2019-03-26T03:00:10.747Z,72.60
2019-03-26T03:02:39.296Z,72.60
2019-03-26T03:05:08.302Z,72.60
2019-03-26T03:07:36.768Z,72.60
2019-03-26T03:10:06.943Z,72.40
2019-03-26T03:12:35.774Z,72.40
2019-03-26T03:15:07.046Z,72.30
2019-03-26T03:17:35.522Z,72.30
2019-03-26T03:20:07.223Z,72.40
2019-03-26T03:22:35.761Z,72.50
2019-03-26T03:25:05.218Z,72.60
2019-03-26T03:27:33.679Z,72.50
2019-03-26T03:30:02.191Z,71.80
2019-03-26T03:32:30.714Z,71.40
2019-03-26T03:34:59.208Z,71.30
2019-03-26T03:37:28.896Z,71.40
2019-03-26T03:39:57.358Z,71.30
2019-03-26T03:42:25.992Z,71.40
2019-03-26T03:44:54.523Z,71.50
2019-03-26T03:47:26.100Z,72.30
2019-03-26T03:49:58.858Z,71.70
2019-03-26T03:52:30.241Z,71.60
2019-03-26T03:54:59.548Z,71.60
2019-03-26T03:57:31.098Z,71.40
2019-03-26T04:00:00.997Z,71.50
2019-03-26T04:02:29.904Z,71.70
2019-03-26T04:04:58.395Z,71.90
2019-03-26T04:07:26.926Z,72.30
2019-03-26T04:09:55.379Z,72.50
2019-03-26T04:12:23.838Z,72.60
2019-03-26T04:14:52.297Z,72.80
2019-03-26T04:17:20.773Z,73.00
2019-03-26T04:19:50.780Z,73.20
2019-03-26T04:22:19.395Z,73.40
2019-03-26T04:24:47.925Z,73.70
2019-03-26T04:27:16.389Z,73.70
2019-03-26T04:29:44.937Z,73.90
2019-03-26T04:32:13.596Z,73.90
2019-03-26T04:34:42.055Z,74.10
2019-03-26T04:37:10.597Z,74.30
2019-03-26T04:39:39.045Z,74.50
2019-03-26T04:42:07.851Z,74.40
2019-03-26T04:44:36.440Z,74.60
2019-03-26T04:47:05.453Z,74.70
2019-03-26T04:49:34.939Z,74.70
2019-03-26T04:52:03.678Z,75.00
2019-03-26T04:54:32.177Z,74.80
2019-03-26T04:57:01.009Z,74.60
2019-03-26T04:59:29.471Z,74.40
2019-03-26T05:01:57.945Z,74.30
2019-03-26T05:04:26.443Z,74.20
2019-03-26T05:06:54.897Z,74.30
2019-03-26T05:09:23.495Z,74.40
2019-03-26T05:11:51.961Z,74.60
2019-03-26T05:14:20.437Z,74.50
2019-03-26T05:16:49.122Z,74.50
2019-03-26T05:19:17.581Z,74.70
2019-03-26T05:21:46.058Z,74.70
2019-03-26T05:24:14.522Z,74.70
2019-03-26T05:26:43.315Z,74.60
2019-03-26T05:29:12.230Z,74.40
2019-03-26T05:31:40.864Z,74.30
2019-03-26T05:34:09.350Z,74.20
2019-03-26T05:36:50.393Z,74.10
2019-03-26T05:39:08.447Z,74.20
2019-03-26T05:41:37.185Z,74.30
2019-03-26T05:44:05.942Z,74.30
2019-03-26T05:46:34.734Z,74.30
2019-03-26T05:49:03.221Z,74.40
2019-03-26T05:51:31.761Z,74.40
2019-03-26T05:54:00.294Z,74.10
2019-03-26T05:56:30.556Z,74.10
2019-03-26T05:58:58.954Z,73.80
2019-03-26T06:01:27.495Z,73.80
2019-03-26T06:03:56.043Z,73.80
2019-03-26T06:06:24.596Z,73.80
2019-03-26T06:08:55.269Z,73.80
2019-03-26T06:11:25.288Z,73.70
2019-03-26T06:13:54.076Z,73.80
2019-03-26T06:16:22.655Z,73.90
2019-03-26T06:18:51.466Z,74.00
2019-03-26T06:21:19.929Z,73.90
2019-03-26T06:23:48.395Z,73.80
2019-03-26T06:26:17.705Z,73.80
2019-03-26T06:28:46.464Z,73.80
2019-03-26T06:31:15.060Z,73.60
2019-03-26T06:33:43.529Z,73.40
2019-03-26T06:36:11.998Z,73.00
2019-03-26T06:38:40.495Z,72.70
2019-03-26T06:41:09.207Z,72.50
2019-03-26T06:43:37.658Z,72.40
2019-03-26T06:46:06.203Z,72.40
2019-03-26T06:48:34.715Z,72.30
2019-03-26T06:51:03.230Z,72.40
2019-03-26T06:53:31.757Z,72.60
2019-03-26T06:56:00.232Z,72.90
2019-03-26T06:58:28.702Z,73.30
2019-03-26T07:00:57.329Z,73.50
2019-03-26T07:03:25.799Z,73.70
2019-03-26T07:05:54.633Z,73.70
2019-03-26T07:08:23.348Z,73.90
2019-03-26T07:10:51.823Z,73.80
2019-03-26T07:13:20.349Z,73.80
2019-03-26T07:15:48.825Z,73.70
2019-03-26T07:18:17.528Z,73.50
2019-03-26T07:20:46.156Z,73.40
2019-03-26T07:23:14.759Z,73.30
2019-03-26T07:25:43.441Z,73.00
2019-03-26T07:28:11.970Z,72.90
2019-03-26T07:30:45.174Z,72.90
2019-03-26T07:33:13.625Z,72.80
2019-03-26T07:35:42.467Z,72.90
2019-03-26T07:38:11.269Z,72.80
2019-03-26T07:40:40.190Z,72.70
2019-03-26T07:43:09.075Z,72.40
2019-03-26T07:45:37.614Z,72.10
2019-03-26T07:48:06.528Z,71.90
2019-03-26T07:50:35.010Z,71.70
2019-03-26T07:53:04.209Z,72.50
2019-03-26T07:55:32.749Z,71.90
2019-03-26T07:58:01.316Z,71.80
2019-03-26T08:00:34.813Z,71.70
2019-03-26T08:03:03.306Z,71.80
2019-03-26T08:05:31.786Z,71.80
2019-03-26T08:08:00.786Z,71.70
2019-03-26T08:10:29.400Z,71.60
2019-03-26T08:12:58.337Z,71.50
2019-03-26T08:15:26.919Z,71.40
2019-03-26T08:17:55.513Z,71.40
2019-03-26T08:20:24.344Z,71.20
2019-03-26T08:22:53.142Z,70.70
2019-03-26T08:25:21.751Z,70.50
2019-03-26T08:27:50.301Z,70.30
2019-03-26T08:30:18.779Z,70.40
2019-03-26T08:32:47.308Z,70.60
2019-03-26T08:35:15.772Z,70.70
2019-03-26T08:37:44.331Z,71.60
2019-03-26T08:40:14.181Z,70.90
2019-03-26T08:42:42.677Z,70.80
2019-03-26T08:45:11.489Z,70.70
2019-03-26T08:47:40.029Z,70.60
2019-03-26T08:50:09.501Z,70.30
2019-03-26T08:52:37.975Z,70.30
2019-03-26T08:55:09.059Z,70.00
2019-03-26T08:57:37.530Z,69.90
2019-03-26T09:00:08.604Z,69.80
2019-03-26T09:02:37.543Z,69.10
2019-03-26T09:05:07.485Z,69.00
2019-03-26T09:07:36.040Z,69.00
2019-03-26T09:10:07.592Z,69.30
2019-03-26T09:12:39.248Z,69.50
2019-03-26T09:15:08.976Z,69.00
2019-03-26T09:17:38.002Z,68.80
2019-03-26T09:20:08.829Z,68.60
2019-03-26T09:22:37.346Z,68.40
2019-03-26T09:25:07.475Z,68.70
2019-03-26T09:27:36.029Z,68.50
2019-03-26T09:30:07.620Z,68.60
2019-03-26T09:32:36.561Z,68.50
2019-03-26T09:35:08.585Z,68.50
2019-03-26T09:37:37.698Z,68.60
2019-03-26T09:40:08.485Z,68.20
2019-03-26T09:42:38.649Z,68.20
2019-03-26T09:45:09.584Z,67.90
2019-03-26T09:47:39.217Z,68.20
2019-03-26T09:50:10.385Z,68.10
2019-03-26T09:52:38.920Z,68.10
2019-03-26T09:55:09.118Z,68.20
2019-03-26T09:57:38.002Z,68.40
2019-03-26T10:00:09.619Z,68.60
2019-03-26T10:02:38.081Z,68.70
2019-03-26T10:05:08.375Z,68.90
2019-03-26T10:07:36.849Z,68.80
2019-03-26T10:10:09.920Z,68.70
2019-03-26T10:12:38.723Z,68.80
2019-03-26T10:15:08.237Z,68.90
2019-03-26T10:17:37.355Z,68.20
2019-03-26T10:20:07.659Z,68.70
2019-03-26T10:22:37.760Z,67.70
2019-03-26T10:25:10.894Z,66.60
2019-03-26T10:27:38.577Z,66.30
2019-03-26T10:30:10.218Z,66.30
2019-03-26T10:32:39.137Z,66.20
2019-03-26T10:35:08.122Z,66.00
2019-03-26T10:37:36.585Z,66.20
2019-03-26T10:40:07.380Z,66.30
2019-03-26T10:42:36.177Z,66.30
2019-03-26T10:45:06.829Z,66.30
2019-03-26T10:47:35.653Z,66.40
2019-03-26T10:50:06.958Z,66.60
2019-03-26T10:52:35.488Z,66.70
2019-03-26T10:55:06.513Z,66.50
2019-03-26T10:57:35.644Z,66.40
2019-03-26T11:00:06.957Z,66.70
2019-03-26T11:02:35.519Z,66.20
2019-03-26T11:05:06.275Z,66.00
2019-03-26T11:07:34.820Z,65.90
2019-03-26T11:10:04.840Z,65.70
2019-03-26T11:12:33.313Z,65.70
2019-03-26T11:15:01.863Z,65.50
2019-03-26T11:17:30.332Z,65.40
2019-03-26T11:19:58.788Z,65.20
2019-03-26T11:22:27.588Z,65.10
2019-03-26T11:24:56.201Z,65.20
2019-03-26T11:27:25.026Z,64.70
2019-03-26T11:29:53.492Z,64.10
2019-03-26T11:32:22.422Z,64.20
2019-03-26T11:34:50.969Z,64.00
2019-03-26T11:37:19.823Z,63.70
2019-03-26T11:39:48.418Z,63.80
2019-03-26T11:42:17.001Z,63.60
2019-03-26T11:44:45.469Z,63.90
2019-03-26T11:47:15.028Z,63.60
2019-03-26T11:49:43.498Z,63.60
2019-03-26T11:52:12.051Z,63.70
2019-03-26T11:54:40.569Z,63.80
2019-03-26T11:57:09.062Z,63.70
2019-03-26T11:59:37.838Z,63.60
2019-03-26T12:02:08.114Z,63.40
2019-03-26T12:04:36.671Z,63.40
2019-03-26T12:07:05.527Z,63.10
2019-03-26T12:09:45.499Z,63.10
2019-03-26T12:12:04.987Z,63.20
2019-03-26T12:14:33.463Z,62.80
2019-03-26T12:17:02.088Z,62.70
2019-03-26T12:19:30.643Z,62.80
2019-03-26T12:21:59.258Z,62.90
2019-03-26T12:24:27.730Z,62.50
2019-03-26T12:26:56.214Z,62.70
2019-03-26T12:29:24.698Z,62.50
2019-03-26T12:31:53.185Z,62.70
2019-03-26T12:34:21.723Z,62.10
2019-03-26T12:36:50.195Z,61.90
2019-03-26T12:39:18.674Z,61.40
2019-03-26T12:41:47.230Z,61.40
2019-03-26T12:44:15.793Z,61.40
2019-03-26T12:46:44.369Z,61.30
2019-03-26T12:49:12.940Z,61.70
2019-03-26T12:51:41.515Z,61.20
2019-03-26T12:54:09.985Z,61.10
2019-03-26T12:56:38.592Z,61.10
2019-03-26T12:59:07.139Z,61.20
2019-03-26T13:01:35.601Z,61.00
2019-03-26T13:04:12.688Z,61.20
2019-03-26T13:06:35.336Z,61.10
2019-03-26T13:09:05.350Z,60.70
2019-03-26T13:11:34.638Z,60.50
2019-03-26T13:14:03.193Z,60.60
2019-03-26T13:16:31.732Z,60.30
2019-03-26T13:19:01.850Z,60.00
2019-03-26T13:21:30.314Z,60.20
2019-03-26T13:23:59.019Z,60.20
2019-03-26T13:26:27.570Z,60.00
2019-03-26T13:28:56.029Z,60.00
2019-03-26T13:31:24.488Z,60.00
2019-03-26T13:33:52.996Z,60.00
2019-03-26T13:36:21.492Z,60.00
2019-03-26T13:38:49.956Z,59.90
2019-03-26T13:41:18.419Z,59.80
2019-03-26T13:43:46.891Z,60.20
2019-03-26T13:46:15.361Z,59.40
2019-03-26T13:48:43.838Z,59.30
2019-03-26T13:51:12.406Z,59.30
2019-03-26T13:53:40.933Z,59.40
2019-03-26T13:56:09.397Z,59.20
2019-03-26T13:58:37.932Z,59.20
2019-03-26T14:01:06.410Z,59.40
2019-03-26T14:03:35.624Z,59.40
2019-03-26T14:06:04.986Z,58.90
2019-03-26T14:08:33.754Z,58.90
2019-03-26T14:11:02.475Z,58.90
2019-03-26T14:13:30.954Z,58.50
2019-03-26T14:16:00.369Z,58.20
2019-03-26T14:18:29.230Z,58.00
2019-03-26T14:20:57.695Z,58.00
2019-03-26T14:23:26.174Z,57.90
2019-03-26T14:25:55.393Z,57.80
2019-03-26T14:28:23.904Z,57.50
2019-03-26T14:30:52.674Z,57.60
2019-03-26T14:33:21.246Z,57.80
2019-03-26T14:35:51.573Z,57.60
2019-03-26T14:38:24.726Z,57.50
2019-03-26T14:40:56.510Z,57.20
2019-03-26T14:43:25.390Z,57.30
2019-03-26T14:45:54.028Z,57.20
2019-03-26T14:48:22.599Z,57.30
2019-03-26T14:50:51.087Z,57.50
2019-03-26T14:53:20.052Z,57.50
2019-03-26T14:55:48.600Z,57.50
2019-03-26T14:58:24.351Z,57.70
2019-03-26T15:00:53.187Z,57.40
2019-03-26T15:03:24.834Z,57.30
2019-03-26T15:05:53.365Z,55.40
2019-03-26T15:08:21.871Z,56.50
2019-03-26T15:10:50.417Z,56.90
2019-03-26T15:13:19.454Z,57.00
2019-03-26T15:15:48.084Z,57.20
2019-03-26T15:18:16.545Z,57.00
2019-03-26T15:20:45.015Z,57.60
2019-03-26T15:23:13.508Z,57.00
2019-03-26T15:25:42.022Z,57.00
2019-03-26T15:28:11.906Z,57.10
2019-03-26T15:30:40.855Z,57.00
2019-03-26T15:33:09.335Z,57.10
2019-03-26T15:35:38.487Z,57.00
2019-03-26T15:38:07.483Z,56.90
2019-03-26T15:40:37.784Z,57.20
2019-03-26T15:43:06.680Z,57.40
2019-03-26T15:45:35.528Z,57.30
2019-03-26T15:48:05.135Z,57.20
2019-03-26T15:50:41.368Z,57.20
2019-03-26T15:53:09.910Z,57.30
2019-03-26T15:55:39.061Z,57.70
2019-03-26T15:58:07.624Z,57.10
2019-03-26T16:00:37.021Z,57.20
2019-03-26T16:03:06.003Z,57.30
2019-03-26T16:05:34.644Z,57.20
2019-03-26T16:08:03.458Z,57.10
2019-03-26T16:10:32.020Z,57.70
2019-03-26T16:13:00.482Z,57.20
2019-03-26T16:15:29.092Z,56.50
2019-03-26T16:17:57.658Z,56.60
2019-03-26T16:20:26.128Z,57.00
2019-03-26T16:22:54.661Z,57.40
2019-03-26T16:25:24.808Z,57.50
2019-03-26T16:27:53.734Z,57.40
2019-03-26T16:30:22.271Z,57.50
2019-03-26T16:32:50.742Z,57.70
2019-03-26T16:35:19.375Z,57.80
2019-03-26T16:37:47.923Z,57.90
2019-03-26T16:40:16.467Z,58.00
2019-03-26T16:42:44.948Z,57.80
2019-03-26T16:45:14.978Z,57.50
2019-03-26T16:47:43.473Z,57.50
2019-03-26T16:50:12.964Z,57.60
2019-03-26T16:52:41.500Z,57.70
2019-03-26T16:55:10.435Z,57.90
2019-03-26T16:57:41.778Z,57.80
2019-03-26T17:00:10.144Z,57.70
2019-03-26T17:02:38.621Z,57.70
2019-03-26T17:05:07.641Z,58.00
2019-03-26T17:07:36.149Z,58.00
2019-03-26T17:10:07.066Z,58.10
2019-03-26T17:12:35.630Z,58.10
2019-03-26T17:15:07.920Z,58.30
2019-03-26T17:17:36.823Z,58.60
2019-03-26T17:20:07.108Z,58.60
2019-03-26T17:22:35.614Z,58.90
2019-03-26T17:25:07.791Z,58.60
2019-03-26T17:27:36.253Z,58.50
2019-03-26T17:30:06.995Z,58.50
2019-03-26T17:32:35.462Z,58.80
2019-03-26T17:35:06.457Z,58.80
2019-03-26T17:37:34.976Z,59.00
2019-03-26T17:40:04.758Z,59.00
2019-03-26T17:42:33.213Z,59.00
2019-03-26T17:45:01.752Z,59.00
2019-03-26T17:47:30.223Z,59.10
2019-03-26T17:49:58.790Z,59.20
2019-03-26T17:52:27.264Z,59.30
2019-03-26T17:54:55.966Z,59.30
2019-03-26T17:57:24.523Z,59.40
2019-03-26T17:59:53.054Z,59.50
2019-03-26T18:02:21.577Z,59.60
2019-03-26T18:04:50.991Z,59.60
2019-03-26T18:07:19.544Z,59.70
2019-03-26T18:09:48.077Z,59.90
2019-03-26T18:12:35.953Z,60.00
2019-03-26T18:15:05.669Z,60.00
2019-03-26T18:17:34.170Z,60.00
2019-03-26T18:20:03.439Z,60.00
2019-03-26T18:22:31.931Z,60.10
2019-03-26T18:25:00.413Z,60.10
2019-03-26T18:27:28.960Z,60.30
2019-03-26T18:29:57.448Z,60.40
2019-03-26T18:32:26.054Z,60.60
2019-03-26T18:34:54.596Z,61.80
2019-03-26T18:37:23.079Z,61.00
2019-03-26T18:39:51.632Z,61.10
2019-03-26T18:42:20.186Z,61.20
2019-03-26T18:44:48.670Z,61.20
2019-03-26T18:47:17.183Z,61.20
2019-03-26T18:49:45.943Z,61.20
2019-03-26T18:52:14.851Z,61.30
2019-03-26T18:54:43.784Z,61.50
2019-03-26T18:57:13.112Z,61.80
2019-03-26T18:59:42.045Z,62.00
2019-03-26T19:02:11.154Z,62.30
2019-03-26T19:04:39.632Z,62.40
2019-03-26T19:07:08.179Z,62.40
2019-03-26T19:09:37.122Z,62.50
2019-03-26T19:12:07.368Z,62.80
2019-03-26T19:14:35.902Z,63.00
2019-03-26T19:17:04.822Z,63.10
2019-03-26T19:19:33.303Z,63.10
2019-03-26T19:22:02.118Z,63.10
2019-03-26T19:24:31.029Z,63.10
2019-03-26T19:26:59.491Z,63.20
2019-03-26T19:29:28.058Z,63.50
2019-03-26T19:31:56.590Z,63.70
2019-03-26T19:34:25.287Z,63.80
2019-03-26T19:36:53.825Z,63.80
2019-03-26T19:39:22.378Z,63.90
2019-03-26T19:41:51.589Z,64.00
2019-03-26T19:44:20.398Z,64.10
2019-03-26T19:46:48.996Z,64.30
2019-03-26T19:49:17.681Z,64.30
2019-03-26T19:51:46.158Z,64.60
2019-03-26T19:54:14.711Z,64.70
2019-03-26T19:56:48.091Z,64.50
2019-03-26T19:59:16.748Z,64.70
2019-03-26T20:01:45.212Z,65.30
2019-03-26T20:04:13.777Z,66.00
2019-03-26T20:06:42.257Z,65.30
2019-03-26T20:09:10.805Z,64.70
2019-03-26T20:11:39.538Z,65.40
2019-03-26T20:14:08.027Z,65.20
2019-03-26T20:16:41.949Z,65.60
2019-03-26T20:19:06.865Z,65.70
2019-03-26T20:21:35.334Z,66.00
2019-03-26T20:24:04.898Z,66.00
2019-03-26T20:26:33.372Z,66.10
2019-03-26T20:29:01.838Z,66.20
2019-03-26T20:31:30.375Z,66.20
2019-03-26T20:33:58.849Z,66.50
2019-03-26T20:36:27.540Z,66.80
2019-03-26T20:38:56.096Z,66.90
2019-03-26T20:41:24.721Z,67.20
2019-03-26T20:43:53.733Z,67.10
2019-03-26T20:46:22.269Z,67.00
2019-03-26T20:48:50.742Z,67.10
2019-03-26T20:51:19.207Z,67.20
2019-03-26T20:53:47.696Z,67.40
2019-03-26T20:56:16.242Z,67.60
2019-03-26T20:58:45.337Z,67.70
2019-03-26T21:01:13.871Z,68.10
2019-03-26T21:03:42.980Z,68.20
2019-03-26T21:06:11.469Z,68.30
2019-03-26T21:08:41.967Z,68.30
2019-03-26T21:11:10.425Z,68.40
2019-03-26T21:13:50.317Z,68.60
2019-03-26T21:16:09.158Z,68.60
2019-03-26T21:18:37.640Z,68.70
2019-03-26T21:21:06.163Z,68.70
2019-03-26T21:23:34.645Z,68.80
2019-03-26T21:26:03.234Z,69.00
2019-03-26T21:28:32.172Z,69.10
2019-03-26T21:31:05.798Z,69.10
2019-03-26T21:33:37.192Z,69.10
2019-03-26T21:36:07.312Z,69.20
2019-03-26T21:38:35.785Z,69.30
2019-03-26T21:41:07.096Z,69.60
2019-03-26T21:43:35.537Z,69.90
2019-03-26T21:46:05.007Z,69.80
2019-03-26T21:48:33.646Z,70.20
2019-03-26T21:51:02.125Z,69.90
2019-03-26T21:53:30.727Z,70.00
2019-03-26T21:56:06.334Z,70.30
2019-03-26T21:58:29.416Z,70.50
2019-03-26T22:00:58.020Z,70.70
2019-03-26T22:03:26.810Z,70.80
2019-03-26T22:05:55.765Z,71.30
2019-03-26T22:08:24.301Z,71.30
2019-03-26T22:10:53.054Z,71.40
2019-03-26T22:13:21.628Z,71.90
2019-03-26T22:15:50.104Z,71.60
2019-03-26T22:18:18.585Z,71.80
2019-03-26T22:20:47.078Z,71.90
2019-03-26T22:23:15.878Z,71.90
2019-03-26T22:25:44.449Z,72.20
2019-03-26T22:28:13.240Z,72.30
2019-03-26T22:30:41.696Z,72.30
2019-03-26T22:33:10.166Z,72.50
2019-03-26T22:35:38.992Z,72.70
2019-03-26T22:38:07.920Z,72.80
2019-03-26T22:40:36.385Z,73.00
2019-03-26T22:43:05.686Z,73.40
2019-03-26T22:45:35.378Z,73.50
2019-03-26T22:48:04.691Z,73.80
2019-03-26T22:50:33.277Z,73.90
2019-03-26T22:53:01.755Z,74.00
2019-03-26T22:55:30.214Z,74.20
2019-03-26T22:57:58.681Z,74.30
2019-03-26T23:00:29.329Z,74.30
2019-03-26T23:02:57.880Z,74.30
2019-03-26T23:05:29.480Z,74.30
2019-03-26T23:07:58.099Z,74.50
2019-03-26T23:10:26.650Z,74.50
2019-03-26T23:12:55.256Z,74.60
2019-03-26T23:15:25.637Z,74.70
2019-03-26T23:17:54.470Z,74.80
2019-03-26T23:20:23.322Z,74.90
2019-03-26T23:22:51.939Z,75.10
2019-03-26T23:25:20.486Z,75.30
2019-03-26T23:27:49.025Z,75.30
2019-03-26T23:30:18.436Z,75.50
2019-03-26T23:32:46.950Z,75.50
2019-03-26T23:35:15.583Z,75.60
2019-03-26T23:37:44.548Z,75.70
2019-03-26T23:40:13.721Z,75.70
2019-03-26T23:42:43.834Z,75.90
2019-03-26T23:45:19.603Z,76.00
2019-03-26T23:47:45.649Z,76.20
2019-03-26T23:50:14.197Z,76.30
2019-03-26T23:52:42.724Z,76.50
2019-03-26T23:55:12.036Z,76.60
2019-03-26T23:57:40.580Z,76.60
